Weather observations for the past three days for
Ocean County Airport
Imperial (Metric)
Date Time (edt) Wind (mph) Vis. (mi.) Weather Sky Cond. Temperature (ºF) Relative Humidity Wind Chill (°F) Heat Index (°F) Pressure Precipitation (in)
Air Dwpt 6 hour altimeter (in) sea level (mb) 1 hr 3 hr 6 hr
Max. Min.
10 11:56 NW 13 10.00 Fair CLR 73.9 55 52% 29.93 1013.9
10 10:56 SE 3 10.00 Partly Cloudy SCT100 63 60.1 90% 29.94 1014.1
10 09:56 Calm 10.00 Overcast OVC004 57 55.9 96% 29.94 1014.2
10 08:56 Calm 0.50 Fog OVC002 53.1 53.1 100% 29.93 1013.9
10 07:56 Calm 0.25 Fog OVC002 52 52 52 45 100% 29.91 1013.3
10 06:56 N 3 0.50 Fog OVC002 50 50 100% 29.9 1013.0
10 05:56 Calm 0.25 Fog OVC002 48 48 100% 29.88 1012.2
10 04:56 Calm 8.00 Mostly Cloudy BKN002 BKN070 45 45 100% 29.87 1011.7
10 03:56 Calm 0.25 Fog OVC002 45 45 100% 29.85 1011.3
10 02:56 Calm 0.25 Fog NULL 46 45 96% 29.86 1011.4
10 01:56 Calm 10.00 Mostly Cloudy BKN002 BKN070 45 44.1 55 45 97% 29.86 1011.5
10 00:56 Calm 10.00 Partly Cloudy SCT002 46 45 96% 29.87 1011.8
09 23:56 Calm 9.00 Fair CLR 46.9 46.9 100% 29.87 1011.8
09 22:56 Calm 9.00 Fair CLR 48.9 48 97% 29.86 1011.6
09 21:56 Calm 9.00 Fair CLR 53.1 52 96% 29.86 1011.5
09 20:56 E 3 10.00 Fair CLR 55 53.1 93% 29.86 1011.3
09 19:56 Calm 10.00 A Few Clouds FEW060 57.9 55.9 72 57.9 93% 29.84 1010.9
09 18:56 NE 9 10.00 Overcast SCT070 BKN090 OVC110 60.1 55 84% 29.83 1010.5
09 17:56 N 8 10.00 A Few Clouds FEW120 61 55.9 84% 29.84 1010.9
09 16:56 N 8 10.00 Overcast BKN029 OVC050 59 57 93% 29.83 1010.6
09 15:56 SW 9 10.00 Overcast OVC020 64 55 73% 29.84 1010.6
09 14:56 S 14 G 25 10.00 A Few Clouds FEW047 66 55 68% 29.83 1010.6
09 12:56 S 16 10.00 Mostly Cloudy SCT050 BKN060 73 51.1 46% 29.84 1010.9
09 11:56 S 16 G 23 10.00 A Few Clouds FEW060 73 48 41% 29.88 1012.0
09 10:56 SW 16 G 24 10.00 Fair CLR 71.1 48 44% 29.89 1012.5
09 09:56 S 10 G 17 10.00 Fair CLR 68 50 53% 29.9 1012.8
09 08:56 S 13 G 20 10.00 Fair CLR 64 51.1 63% 29.9 1013.0
09 07:56 S 13 G 20 10.00 A Few Clouds FEW100 60.1 50 60.1 52 70% 29.91 1013.3
09 06:56 S 7 10.00 A Few Clouds FEW100 55.9 48 75% 29.91 1013.3
09 05:56 S 7 10.00 Mostly Cloudy BKN110 54 46 75% 29.9 1012.9
09 04:56 S 5 10.00 Mostly Cloudy BKN100 52 44.1 75% 29.91 1013.1
09 03:56 Calm 10.00 Overcast OVC100 54 44.1 69% 29.92 1013.4
09 02:56 S 6 10.00 Overcast OVC090 54 44.1 69% 29.92 1013.4
09 01:56 SW 6 10.00 Overcast OVC100 55 44.1 59 54 67% 29.94 1014.0
09 00:56 SW 8 10.00 Overcast OVC095 55.9 44.1 65% 29.94 1014.2
08 23:56 SW 6 10.00 A Few Clouds FEW095 54 44.1 69% 29.93 1013.9
08 22:56 SW 3 10.00 Overcast OVC090 55.9 44.1 65% 29.93 1013.9
08 21:56 S 3 10.00 Overcast BKN095 OVC110 55.9 42.1 60% 29.93 1013.9
08 20:56 S 6 10.00 Overcast OVC090 57.9 41 53% 29.91 1013.1
08 19:56 S 6 10.00 Overcast OVC085 59 39 70 59 48% 29.89 1012.5
08 18:56 W 10 10.00 A Few Clouds FEW100 64.9 36 34% 29.86 1011.6
08 17:56 W 13 G 20 10.00 Fair CLR 68 35.1 30% 29.86 1011.6
08 16:56 W 12 G 18 10.00 A Few Clouds FEW080 69.1 35.1 29% 29.87 1011.6
08 15:56 W 12 10.00 Partly Cloudy SCT085 66.9 33.1 29% 29.87 1011.8
08 14:56 W 15 G 22 10.00 A Few Clouds FEW090 68 32 26% 29.88 1012.3
08 13:56 W 13 G 24 10.00 A Few Clouds FEW075 68 34 68 51.1 28% 29.9 1012.7
08 12:56 W 18 G 25 10.00 Partly Cloudy SCT075 66.9 33.1 29% 29.91 1013.3
08 11:56 W 20 G 25 10.00 A Few Clouds FEW070 63 32 31% 29.93 1013.8
08 10:56 W 8 G 16 10.00 Fair CLR 63 33.1 33% 29.95 1014.4
08 09:56 W 10 G 17 10.00 Fair CLR 59 33.1 38% 29.95 1014.5
08 08:56 W 9 10.00 Fair CLR 55.9 39 53% 29.95 1014.7
08 07:56 NW 7 10.00 Fair CLR 51.1 41 51.1 43 69% 29.96 1014.8
08 06:56 NW 6 10.00 Fair CLR 46 39.9 79% 44 29.94 1014.1
08 05:56 NW 5 10.00 Fair CLR 44.1 39 83% 42 29.92 1013.5
08 04:56 NW 7 10.00 Fair CLR 46 41 83% 43 29.9 1012.8
08 03:56 NW 8 10.00 Fair CLR 48 45 89% 45 29.86 1011.6
08 02:56 W 6 10.00 Mostly Cloudy SCT075 BKN110 48.9 46 90% 47 29.82 1010.2
08 01:56 W 5 10.00 Partly Cloudy SCT080 46.9 45 53.1 44.1 93% 45 29.82 1010.3
08 00:56 SW 7 10.00 A Few Clouds FEW085 48 46 93% 45 29.82 1010.3
07 23:56 SW 5 10.00 A Few Clouds FEW100 45 44.1 97% 43 29.82 1010.1
07 22:56 Calm 10.00 Fair CLR 45 43 93% 29.82 1010.3
07 21:56 Calm 10.00 Fair CLR 48.9 46 90% 29.83 1010.3
07 20:56 S 5 10.00 Mostly Cloudy BKN085 51.1 45 80% 29.81 1009.9
07 19:56 S 8 10.00 Fair CLR 53.1 44.1 66 53.1 72% 29.8 1009.6
07 18:56 S 12 10.00 A Few Clouds FEW075 57.9 43 58% 29.78 1008.8
07 17:56 S 8 10.00 Partly Cloudy SCT070 60.1 44.1 56% 29.79 1009.0
07 16:56 SE 10 10.00 Fair CLR 62.1 43 50% 29.77 1008.5
07 15:56 SE 7 10.00 Fair CLR 62.1 43 50% 29.78 1008.7
07 14:56 Calm 10.00 Partly Cloudy FEW029 SCT100 64 35.1 34% 29.78 1008.9
07 13:56 Vrbl 7 G 17 10.00 Partly Cloudy FEW021 SCT095 63 37 64 51.1 38% 29.81 1009.8
07 12:56 NW 12 10.00 Mostly Cloudy BKN045 BKN100 62.1 39.9 44% 29.84 1010.7
Date Time (edt) Wind (mph) Vis. (mi.) Weather Sky Cond. Air Dwpt Max. Min. Relative Humidity Wind Chill (°F) Heat Index (°F) altimeter (in) sea level (mb) 1 hr 3 hr 6 hr
6 hour
Temperature (ºF) Pressure Precipitation (in)